PWSweather.com
Personal Weather Stations
Station Observations
KMIEASTT1
Tawas Bay, East Tawas, MI 48730

Tawas BayEast Tawas, MI 48730

Lat: 44.28, Lon: -83.48

Elevation: 600

Station Type: Davis VantagePro

http://www.tawasbayweather.com

High Low Average
Temperature 30.8°F-0.7°C 18.5°F-7.5°C 24.4°F-4.2°C
Dew Point 27.1°F-2.7°C 15.1°F-9.4°C 20.4°F-6.4°C
Winds 10.0 mph 16.1 kmh Calm Calm 3.0 mph SW4.8 kmh SW
Wind Gusts 12.0 mph19.3 kmh -- 5.0 mph8.0 kmh
Humidity 89% 77% 85%
Pressure 30.40 in1029.5 mb 30.26 in1024.7 mb -
Precipitation 0.00 in0.0 mm - -
Hour Temp Dew Point Humidity Winds Wind Gusts Pressure Precip Precip Rate Daily Precip Total
12:01 AM 20.9°F-6.2°C 16.8°F-8.4°C 84% Calm Calm 1.0 mph1.6 kmh 30.26 in1024.7 mb 0.00 in0.0 mm 0.00 in/hr0.0 mm/hr 0.00 in0.0 mm
12:16 AM 20.9°F-6.2°C 16.8°F-8.4°C 84% 2.0 mph NE3.2 kmh NE 2.0 mph3.2 kmh 30.27 in1025.1 mb 0.00 in0.0 mm 0.00 in/hr0.0 mm/hr 0.00 in0.0 mm
12:31 AM 20.2°F-6.6°C 16.4°F-8.7°C 85% 2.0 mph NW3.2 kmh NW 3.0 mph4.8 kmh 30.27 in1025.1 mb 0.00 in0.0 mm 0.00 in/hr0.0 mm/hr 0.00 in0.0 mm
12:46 AM 20.5°F-6.4°C 16.7°F-8.5°C 85% 1.0 mph NW1.6 kmh NW 2.0 mph3.2 kmh 30.28 in1025.4 mb 0.00 in0.0 mm 0.00 in/hr0.0 mm/hr 0.00 in0.0 mm
01:02 AM 20.4°F-6.4°C 16.4°F-8.7°C 84% 2.0 mph NW3.2 kmh NW 3.0 mph4.8 kmh 30.28 in1025.4 mb 0.00 in0.0 mm 0.00 in/hr0.0 mm/hr 0.00 in0.0 mm
01:17 AM 20.8°F-6.2°C 16.7°F-8.5°C 84% 2.0 mph WNW3.2 kmh WNW 3.0 mph4.8 kmh 30.28 in1025.4 mb 0.00 in0.0 mm 0.00 in/hr0.0 mm/hr 0.00 in0.0 mm
01:31 AM 20.8°F-6.2°C 16.7°F-8.5°C 84% 2.0 mph WNW3.2 kmh WNW 3.0 mph4.8 kmh 30.28 in1025.4 mb 0.00 in0.0 mm 0.00 in/hr0.0 mm/hr 0.00 in0.0 mm
01:45 AM 20.6°F-6.3°C 16.8°F-8.4°C 85% Calm Calm 3.0 mph4.8 kmh 30.29 in1025.7 mb 0.00 in0.0 mm 0.00 in/hr0.0 mm/hr 0.00 in0.0 mm
02:02 AM 21.1°F-6.1°C 17.0°F-8.3°C 84% 2.0 mph WNW3.2 kmh WNW 2.0 mph3.2 kmh 30.29 in1025.7 mb 0.00 in0.0 mm 0.00 in/hr0.0 mm/hr 0.00 in0.0 mm
02:16 AM 21.0°F-6.1°C 16.7°F-8.5°C 83% 1.0 mph WNW1.6 kmh WNW 1.0 mph1.6 kmh 30.30 in1026.1 mb 0.00 in0.0 mm 0.00 in/hr0.0 mm/hr 0.00 in0.0 mm
02:31 AM 20.6°F-6.3°C 16.8°F-8.4°C 85% 3.0 mph WNW4.8 kmh WNW 3.0 mph4.8 kmh 30.30 in1026.1 mb 0.00 in0.0 mm 0.00 in/hr0.0 mm/hr 0.00 in0.0 mm
02:46 AM 20.6°F-6.3°C 16.8°F-8.4°C 85% 2.0 mph WNW3.2 kmh WNW 3.0 mph4.8 kmh 30.30 in1026.1 mb 0.00 in0.0 mm 0.00 in/hr0.0 mm/hr 0.00 in0.0 mm
03:01 AM 20.3°F-6.5°C 16.5°F-8.6°C 85% 1.0 mph WNW1.6 kmh WNW 3.0 mph4.8 kmh 30.31 in1026.4 mb 0.00 in0.0 mm 0.00 in/hr0.0 mm/hr 0.00 in0.0 mm
03:16 AM 20.3°F-6.5°C 16.3°F-8.7°C 84% 2.0 mph WNW3.2 kmh WNW 2.0 mph3.2 kmh 30.31 in1026.4 mb 0.00 in0.0 mm 0.00 in/hr0.0 mm/hr 0.00 in0.0 mm
03:30 AM 19.9°F-6.7°C 15.9°F-8.9°C 84% 1.0 mph WNW1.6 kmh WNW 2.0 mph3.2 kmh 30.31 in1026.4 mb 0.00 in0.0 mm 0.00 in/hr0.0 mm/hr 0.00 in0.0 mm
03:46 AM 19.7°F-6.8°C 15.9°F-8.9°C 85% 1.0 mph WNW1.6 kmh WNW 2.0 mph3.2 kmh 30.31 in1026.4 mb 0.00 in0.0 mm 0.00 in/hr0.0 mm/hr 0.00 in0.0 mm
04:02 AM 19.7°F-6.8°C 15.9°F-8.9°C 85% 2.0 mph WNW3.2 kmh WNW 3.0 mph4.8 kmh 30.32 in1026.8 mb 0.00 in0.0 mm 0.00 in/hr0.0 mm/hr 0.00 in0.0 mm
04:16 AM 19.8°F-6.8°C 16.0°F-8.9°C 85% 2.0 mph WNW3.2 kmh WNW 3.0 mph4.8 kmh 30.32 in1026.8 mb 0.00 in0.0 mm 0.00 in/hr0.0 mm/hr 0.00 in0.0 mm
04:31 AM 20.1°F-6.6°C 16.1°F-8.8°C 84% 1.0 mph WNW1.6 kmh WNW 1.0 mph1.6 kmh 30.32 in1026.8 mb 0.00 in0.0 mm 0.00 in/hr0.0 mm/hr 0.00 in0.0 mm
04:46 AM 19.9°F-6.7°C 15.6°F-9.1°C 83% 1.0 mph WNW1.6 kmh WNW 1.0 mph1.6 kmh 30.32 in1026.8 mb 0.00 in0.0 mm 0.00 in/hr0.0 mm/hr 0.00 in0.0 mm
05:02 AM 19.2°F-7.1°C 15.7°F-9.1°C 86% Calm Calm 2.0 mph3.2 kmh 30.33 in1027.1 mb 0.00 in0.0 mm 0.00 in/hr0.0 mm/hr 0.00 in0.0 mm
05:16 AM 19.5°F-6.9°C 15.7°F-9.1°C 85% Calm Calm 1.0 mph1.6 kmh 30.33 in1027.1 mb 0.00 in0.0 mm 0.00 in/hr0.0 mm/hr 0.00 in0.0 mm
05:31 AM 19.4°F-7.0°C 16.2°F-8.8°C 87% 1.0 mph WNW1.6 kmh WNW 2.0 mph3.2 kmh 30.33 in1027.1 mb 0.00 in0.0 mm 0.00 in/hr0.0 mm/hr 0.00 in0.0 mm
05:46 AM 19.5°F-6.9°C 16.5°F-8.6°C 88% Calm Calm 1.0 mph1.6 kmh 30.33 in1027.1 mb 0.00 in0.0 mm 0.00 in/hr0.0 mm/hr 0.00 in0.0 mm
06:02 AM 19.9°F-6.7°C 16.7°F-8.5°C 87% 1.0 mph WNW1.6 kmh WNW 2.0 mph3.2 kmh 30.33 in1027.1 mb 0.00 in0.0 mm 0.00 in/hr0.0 mm/hr 0.00 in0.0 mm
06:16 AM 19.8°F-6.8°C 16.3°F-8.7°C 86% 2.0 mph WNW3.2 kmh WNW 2.0 mph3.2 kmh 30.34 in1027.4 mb 0.00 in0.0 mm 0.00 in/hr0.0 mm/hr 0.00 in0.0 mm
06:32 AM 19.5°F-6.9°C 15.7°F-9.1°C 85% Calm Calm -- 30.34 in1027.4 mb 0.00 in0.0 mm 0.00 in/hr0.0 mm/hr 0.00 in0.0 mm
06:47 AM 19.3°F-7.1°C 16.1°F-8.8°C 87% 2.0 mph WNW3.2 kmh WNW 2.0 mph3.2 kmh 30.34 in1027.4 mb 0.00 in0.0 mm 0.00 in/hr0.0 mm/hr 0.00 in0.0 mm
07:02 AM 19.3°F-7.1°C 16.1°F-8.8°C 87% 2.0 mph WNW3.2 kmh WNW 2.0 mph3.2 kmh 30.33 in1027.1 mb 0.00 in0.0 mm 0.00 in/hr0.0 mm/hr 0.00 in0.0 mm
07:16 AM 19.2°F-7.1°C 16.0°F-8.9°C 87% 2.0 mph WNW3.2 kmh WNW 3.0 mph4.8 kmh 30.33 in1027.1 mb 0.00 in0.0 mm 0.00 in/hr0.0 mm/hr 0.00 in0.0 mm
07:31 AM 18.7°F-7.4°C 15.5°F-9.2°C 87% 2.0 mph W3.2 kmh W 3.0 mph4.8 kmh 30.34 in1027.4 mb 0.00 in0.0 mm 0.00 in/hr0.0 mm/hr 0.00 in0.0 mm
07:46 AM 18.6°F-7.4°C 15.4°F-9.2°C 87% 1.0 mph WNW1.6 kmh WNW 3.0 mph4.8 kmh 30.34 in1027.4 mb 0.00 in0.0 mm 0.00 in/hr0.0 mm/hr 0.00 in0.0 mm
08:01 AM 19.5°F-6.9°C 16.0°F-8.9°C 86% Calm Calm 1.0 mph1.6 kmh 30.34 in1027.4 mb 0.00 in0.0 mm 0.00 in/hr0.0 mm/hr 0.00 in0.0 mm
08:16 AM 20.3°F-6.5°C 16.3°F-8.7°C 84% 1.0 mph WNW1.6 kmh WNW 3.0 mph4.8 kmh 30.35 in1027.8 mb 0.00 in0.0 mm 0.00 in/hr0.0 mm/hr 0.00 in0.0 mm
08:31 AM 18.6°F-7.4°C 15.1°F-9.4°C 86% 4.0 mph WSW6.4 kmh WSW 4.0 mph6.4 kmh 30.35 in1027.8 mb 0.00 in0.0 mm 0.00 in/hr0.0 mm/hr 0.00 in0.0 mm
08:46 AM 18.5°F-7.5°C 15.3°F-9.3°C 87% 3.0 mph WSW4.8 kmh WSW 4.0 mph6.4 kmh 30.36 in1028.1 mb 0.00 in0.0 mm 0.00 in/hr0.0 mm/hr 0.00 in0.0 mm
09:01 AM 19.3°F-7.1°C 16.1°F-8.8°C 87% 4.0 mph WSW6.4 kmh WSW 5.0 mph8.0 kmh 30.37 in1028.4 mb 0.00 in0.0 mm 0.00 in/hr0.0 mm/hr 0.00 in0.0 mm
09:16 AM 20.4°F-6.4°C 16.9°F-8.4°C 86% 1.0 mph WSW1.6 kmh WSW 3.0 mph4.8 kmh 30.37 in1028.4 mb 0.00 in0.0 mm 0.00 in/hr0.0 mm/hr 0.00 in0.0 mm
09:31 AM 22.6°F-5.2°C 18.5°F-7.5°C 84% 3.0 mph WSW4.8 kmh WSW 3.0 mph4.8 kmh 30.38 in1028.8 mb 0.00 in0.0 mm 0.00 in/hr0.0 mm/hr 0.00 in0.0 mm
09:45 AM 23.6°F-4.7°C 18.9°F-7.3°C 82% 2.0 mph SW3.2 kmh SW 3.0 mph4.8 kmh 30.39 in1029.1 mb 0.00 in0.0 mm 0.00 in/hr0.0 mm/hr 0.00 in0.0 mm
10:00 AM 25.1°F-3.8°C 20.4°F-6.4°C 82% 2.0 mph SW3.2 kmh SW 2.0 mph3.2 kmh 30.40 in1029.5 mb 0.00 in0.0 mm 0.00 in/hr0.0 mm/hr 0.00 in0.0 mm
10:16 AM 27.7°F-2.4°C 22.1°F-5.5°C 79% 2.0 mph SW3.2 kmh SW 2.0 mph3.2 kmh 30.40 in1029.5 mb 0.00 in0.0 mm 0.00 in/hr0.0 mm/hr 0.00 in0.0 mm
10:31 AM 28.9°F-1.7°C 22.6°F-5.2°C 77% 1.0 mph SW1.6 kmh SW 2.0 mph3.2 kmh 30.40 in1029.5 mb 0.00 in0.0 mm 0.00 in/hr0.0 mm/hr 0.00 in0.0 mm
10:46 AM 28.1°F-2.2°C 21.8°F-5.7°C 77% 3.0 mph ESE4.8 kmh ESE 4.0 mph6.4 kmh 30.39 in1029.1 mb 0.00 in0.0 mm 0.00 in/hr0.0 mm/hr 0.00 in0.0 mm
11:00 AM 27.5°F-2.5°C 22.2°F-5.4°C 80% 3.0 mph E4.8 kmh E 3.0 mph4.8 kmh 30.39 in1029.1 mb 0.00 in0.0 mm 0.00 in/hr0.0 mm/hr 0.00 in0.0 mm
11:17 AM 28.1°F-2.2°C 23.0°F-5.0°C 81% 3.0 mph E4.8 kmh E 5.0 mph8.0 kmh 30.39 in1029.1 mb 0.00 in0.0 mm 0.00 in/hr0.0 mm/hr 0.00 in0.0 mm
11:31 AM 29.3°F-1.5°C 25.1°F-3.8°C 84% 4.0 mph ESE6.4 kmh ESE 4.0 mph6.4 kmh 30.38 in1028.8 mb 0.00 in0.0 mm 0.00 in/hr0.0 mm/hr 0.00 in0.0 mm
11:45 AM 30.2°F-1.0°C 26.0°F-3.3°C 84% 4.0 mph SE6.4 kmh SE 6.0 mph9.7 kmh 30.38 in1028.8 mb 0.00 in0.0 mm 0.00 in/hr0.0 mm/hr 0.00 in0.0 mm
12:02 PM 30.6°F-0.8°C 25.8°F-3.4°C 82% 5.0 mph SE8.0 kmh SE 7.0 mph11.3 kmh 30.38 in1028.8 mb 0.00 in0.0 mm 0.00 in/hr0.0 mm/hr 0.00 in0.0 mm
12:16 PM 30.3°F-0.9°C 26.3°F-3.2°C 85% 6.0 mph SSE9.7 kmh SSE 9.0 mph14.5 kmh 30.38 in1028.8 mb 0.00 in0.0 mm 0.00 in/hr0.0 mm/hr 0.00 in0.0 mm
12:31 PM 30.2°F-1.0°C 26.0°F-3.3°C 84% 6.0 mph SSE9.7 kmh SSE 9.0 mph14.5 kmh 30.38 in1028.8 mb 0.00 in0.0 mm 0.00 in/hr0.0 mm/hr 0.00 in0.0 mm
12:46 PM 30.2°F-1.0°C 26.5°F-3.1°C 86% 7.0 mph SE11.3 kmh SE 9.0 mph14.5 kmh 30.37 in1028.4 mb 0.00 in0.0 mm 0.00 in/hr0.0 mm/hr 0.00 in0.0 mm
01:02 PM 30.3°F-0.9°C 26.6°F-3.0°C 86% 9.0 mph SSE14.5 kmh SSE 11.0 mph17.7 kmh 30.36 in1028.1 mb 0.00 in0.0 mm 0.00 in/hr0.0 mm/hr 0.00 in0.0 mm
01:16 PM 30.1°F-1.1°C 26.7°F-2.9°C 87% 9.0 mph SSE14.5 kmh SSE 11.0 mph17.7 kmh 30.36 in1028.1 mb 0.00 in0.0 mm 0.00 in/hr0.0 mm/hr 0.00 in0.0 mm
01:31 PM 30.1°F-1.1°C 26.7°F-2.9°C 87% 10.0 mph SSE16.1 kmh SSE 12.0 mph19.3 kmh 30.35 in1027.8 mb 0.00 in0.0 mm 0.00 in/hr0.0 mm/hr 0.00 in0.0 mm
01:45 PM 30.5°F-0.8°C 27.1°F-2.7°C 87% 8.0 mph SE12.9 kmh SE 11.0 mph17.7 kmh 30.34 in1027.4 mb 0.00 in0.0 mm 0.00 in/hr0.0 mm/hr 0.00 in0.0 mm
02:02 PM 30.3°F-0.9°C 26.3°F-3.2°C 85% 9.0 mph SSE14.5 kmh SSE 12.0 mph19.3 kmh 30.34 in1027.4 mb 0.00 in0.0 mm 0.00 in/hr0.0 mm/hr 0.00 in0.0 mm
02:15 PM 30.5°F-0.8°C 26.5°F-3.1°C 85% 6.0 mph SSE9.7 kmh SSE 12.0 mph19.3 kmh 30.34 in1027.4 mb 0.00 in0.0 mm 0.00 in/hr0.0 mm/hr 0.00 in0.0 mm
02:30 PM 30.3°F-0.9°C 26.3°F-3.2°C 85% 9.0 mph S14.5 kmh S 11.0 mph17.7 kmh 30.34 in1027.4 mb 0.00 in0.0 mm 0.00 in/hr0.0 mm/hr 0.00 in0.0 mm
02:46 PM 30.2°F-1.0°C 26.0°F-3.3°C 84% 10.0 mph S16.1 kmh S 12.0 mph19.3 kmh 30.34 in1027.4 mb 0.00 in0.0 mm 0.00 in/hr0.0 mm/hr 0.00 in0.0 mm
03:02 PM 30.5°F-0.8°C 26.0°F-3.3°C 83% 9.0 mph S14.5 kmh S 11.0 mph17.7 kmh 30.34 in1027.4 mb 0.00 in0.0 mm 0.00 in/hr0.0 mm/hr 0.00 in0.0 mm
03:16 PM 30.6°F-0.8°C 26.1°F-3.3°C 83% 7.0 mph SSE11.3 kmh SSE 10.0 mph16.1 kmh 30.33 in1027.1 mb 0.00 in0.0 mm 0.00 in/hr0.0 mm/hr 0.00 in0.0 mm
03:30 PM 30.8°F-0.7°C 26.3°F-3.2°C 83% 7.0 mph S11.3 kmh S 10.0 mph16.1 kmh 30.33 in1027.1 mb 0.00 in0.0 mm 0.00 in/hr0.0 mm/hr 0.00 in0.0 mm
03:47 PM 30.7°F-0.7°C 26.5°F-3.1°C 84% 6.0 mph S9.7 kmh S 10.0 mph16.1 kmh 30.33 in1027.1 mb 0.00 in0.0 mm 0.00 in/hr0.0 mm/hr 0.00 in0.0 mm
04:03 PM 30.7°F-0.7°C 26.2°F-3.2°C 83% 10.0 mph S16.1 kmh S 10.0 mph16.1 kmh 30.32 in1026.8 mb 0.00 in0.0 mm 0.00 in/hr0.0 mm/hr 0.00 in0.0 mm
04:16 PM 30.8°F-0.7°C 26.3°F-3.2°C 83% 7.0 mph S11.3 kmh S 9.0 mph14.5 kmh 30.32 in1026.8 mb 0.00 in0.0 mm 0.00 in/hr0.0 mm/hr 0.00 in0.0 mm
04:31 PM 30.4°F-0.9°C 25.6°F-3.6°C 82% 5.0 mph SSE8.0 kmh SSE 8.0 mph12.9 kmh 30.31 in1026.4 mb 0.00 in0.0 mm 0.00 in/hr0.0 mm/hr 0.00 in0.0 mm
04:45 PM 30.0°F-1.1°C 25.2°F-3.8°C 82% 6.0 mph S9.7 kmh S 8.0 mph12.9 kmh 30.31 in1026.4 mb 0.00 in0.0 mm 0.00 in/hr0.0 mm/hr 0.00 in0.0 mm
05:02 PM 29.2°F-1.6°C 24.4°F-4.2°C 82% 6.0 mph SSE9.7 kmh SSE 7.0 mph11.3 kmh 30.31 in1026.4 mb 0.00 in0.0 mm 0.00 in/hr0.0 mm/hr 0.00 in0.0 mm
05:16 PM 27.9°F-2.3°C 23.7°F-4.6°C 84% 3.0 mph ESE4.8 kmh ESE 5.0 mph8.0 kmh 30.30 in1026.1 mb 0.00 in0.0 mm 0.00 in/hr0.0 mm/hr 0.00 in0.0 mm
05:31 PM 27.2°F-2.7°C 23.9°F-4.5°C 87% 2.0 mph SE3.2 kmh SE 4.0 mph6.4 kmh 30.30 in1026.1 mb 0.00 in0.0 mm 0.00 in/hr0.0 mm/hr 0.00 in0.0 mm
05:46 PM 26.6°F-3.0°C 23.3°F-4.8°C 87% 3.0 mph SE4.8 kmh SE 4.0 mph6.4 kmh 30.30 in1026.1 mb 0.00 in0.0 mm 0.00 in/hr0.0 mm/hr 0.00 in0.0 mm
06:02 PM 26.3°F-3.2°C 23.0°F-5.0°C 87% 2.0 mph SE3.2 kmh SE 5.0 mph8.0 kmh 30.30 in1026.1 mb 0.00 in0.0 mm 0.00 in/hr0.0 mm/hr 0.00 in0.0 mm
06:16 PM 26.8°F-2.9°C 24.0°F-4.4°C 89% 5.0 mph E8.0 kmh E 5.0 mph8.0 kmh 30.29 in1025.7 mb 0.00 in0.0 mm 0.00 in/hr0.0 mm/hr 0.00 in0.0 mm
06:31 PM 26.8°F-2.9°C 23.7°F-4.6°C 88% 5.0 mph E8.0 kmh E 6.0 mph9.7 kmh 30.28 in1025.4 mb 0.00 in0.0 mm 0.00 in/hr0.0 mm/hr 0.00 in0.0 mm
06:46 PM 26.9°F-2.8°C 23.8°F-4.6°C 88% 5.0 mph E8.0 kmh E 5.0 mph8.0 kmh 30.28 in1025.4 mb 0.00 in0.0 mm 0.00 in/hr0.0 mm/hr 0.00 in0.0 mm
07:03 PM 28.0°F-2.2°C 25.2°F-3.8°C 89% 6.0 mph E9.7 kmh E 7.0 mph11.3 kmh 30.28 in1025.4 mb 0.00 in0.0 mm 0.00 in/hr0.0 mm/hr 0.00 in0.0 mm
07:16 PM 28.0°F-2.2°C 24.6°F-4.1°C 87% 6.0 mph E9.7 kmh E 7.0 mph11.3 kmh 30.28 in1025.4 mb 0.00 in0.0 mm 0.00 in/hr0.0 mm/hr 0.00 in0.0 mm
07:30 PM 27.3°F-2.6°C 23.7°F-4.6°C 86% 5.0 mph E8.0 kmh E 6.0 mph9.7 kmh 30.28 in1025.4 mb 0.00 in0.0 mm 0.00 in/hr0.0 mm/hr 0.00 in0.0 mm
07:47 PM 25.2°F-3.8°C 22.4°F-5.3°C 89% 8.0 mph ESE12.9 kmh ESE 8.0 mph12.9 kmh 30.28 in1025.4 mb 0.00 in0.0 mm 0.00 in/hr0.0 mm/hr 0.00 in0.0 mm
08:03 PM 25.7°F-3.5°C 23.2°F-4.9°C 90% 8.0 mph SE12.9 kmh SE 10.0 mph16.1 kmh 30.27 in1025.1 mb 0.00 in0.0 mm 0.00 in/hr0.0 mm/hr 0.00 in0.0 mm
08:16 PM 26.0°F-3.3°C 23.2°F-4.9°C 89% 7.0 mph SE11.3 kmh SE 10.0 mph16.1 kmh 30.27 in1025.1 mb 0.00 in0.0 mm 0.00 in/hr0.0 mm/hr 0.00 in0.0 mm
08:30 PM 26.1°F-3.3°C 23.3°F-4.8°C 89% 10.0 mph SE16.1 kmh SE 11.0 mph17.7 kmh 30.27 in1025.1 mb 0.00 in0.0 mm 0.00 in/hr0.0 mm/hr 0.00 in0.0 mm
08:46 PM 25.9°F-3.4°C 23.1°F-4.9°C 89% 8.0 mph SE12.9 kmh SE 9.0 mph14.5 kmh 30.26 in1024.7 mb 0.00 in0.0 mm 0.00 in/hr0.0 mm/hr 0.00 in0.0 mm
09:00 PM 26.5°F-3.1°C 23.7°F-4.6°C 89% 8.0 mph SE12.9 kmh SE 10.0 mph16.1 kmh 30.25 in1024.4 mb 0.00 in0.0 mm 0.00 in/hr0.0 mm/hr 0.00 in0.0 mm
09:31 PM 28.2°F-2.1°C 25.1°F-3.8°C 88% 10.0 mph SE16.1 kmh SE 14.0 mph22.5 kmh 30.24 in1024.0 mb 0.00 in0.0 mm 0.00 in/hr0.0 mm/hr 0.00 in0.0 mm
09:45 PM 28.1°F-2.2°C 24.7°F-4.1°C 87% 11.0 mph SSE17.7 kmh SSE 13.0 mph20.9 kmh 30.24 in1024.0 mb 0.00 in0.0 mm 0.00 in/hr0.0 mm/hr 0.00 in0.0 mm
10:02 PM 27.2°F-2.7°C 24.1°F-4.4°C 88% 9.0 mph SE14.5 kmh SE 12.0 mph19.3 kmh 30.22 in1023.4 mb 0.00 in0.0 mm 0.00 in/hr0.0 mm/hr 0.00 in0.0 mm
10:16 PM 27.1°F-2.7°C 24.0°F-4.4°C 88% 11.0 mph SE17.7 kmh SE 13.0 mph20.9 kmh 30.22 in1023.4 mb 0.00 in0.0 mm 0.00 in/hr0.0 mm/hr 0.00 in0.0 mm
10:31 PM 27.8°F-2.3°C 24.4°F-4.2°C 87% 9.0 mph SE14.5 kmh SE 14.0 mph22.5 kmh 30.21 in1023.0 mb 0.00 in0.0 mm 0.00 in/hr0.0 mm/hr 0.00 in0.0 mm
11:00 PM 28.3°F-2.1°C 24.9°F-3.9°C 87% 14.0 mph SE22.5 kmh SE 16.0 mph25.7 kmh 30.20 in1022.7 mb 0.00 in0.0 mm 0.00 in/hr0.0 mm/hr 0.00 in0.0 mm
11:16 PM 27.8°F-2.3°C 24.7°F-4.1°C 88% 12.0 mph SSE19.3 kmh SSE 14.0 mph22.5 kmh 30.19 in1022.4 mb 0.00 in0.0 mm 0.00 in/hr0.0 mm/hr 0.00 in0.0 mm
11:31 PM 28.3°F-2.1°C 25.2°F-3.8°C 88% 14.0 mph SSE22.5 kmh SSE 17.0 mph27.4 kmh 30.19 in1022.4 mb 0.00 in0.0 mm 0.00 in/hr0.0 mm/hr 0.00 in0.0 mm
11:46 PM 28.2°F-2.1°C 24.8°F-4.0°C 87% 14.0 mph SSE22.5 kmh SSE 15.0 mph24.1 kmh 30.18 in1022.0 mb 0.00 in0.0 mm 0.00 in/hr0.0 mm/hr 0.00 in0.0 mm